Time;durP1;ratioP1;P1;durP2;ratioP2;P2;SDS_P1;SDS_P2;PMS_P1;PMS_P2;Temp;Humidity;BMP_temperature;BMP_pressure;BME280_temperature;BME280_humidity;BME280_pressure;Samples;Min_cycle;Max_cycle;Signal;HPM_P1;HPM_P2
2023/09/16 00:00:58;;;;;;;8.32;5.80;;;17.80;99.90;;;;;;4963295;28;20031;-76
2023/09/16 00:03:23;;;;;;;8.90;6.15;;;17.80;99.90;;;;;;4962024;28;20113;-76
2023/09/16 00:05:49;;;;;;;8.75;6.30;;;17.80;99.90;;;;;;4964804;28;20026;-76
2023/09/16 00:08:15;;;;;;;7.57;5.57;;;17.80;99.90;;;;;;4961859;28;20023;-76
2023/09/16 00:10:40;;;;;;;8.30;5.78;;;17.80;99.90;;;;;;4956544;28;20457;-76
2023/09/16 00:13:06;;;;;;;10.57;6.15;;;17.80;99.90;;;;;;4956232;28;20029;-75
2023/09/16 00:15:32;;;;;;;8.95;6.50;;;17.80;99.90;;;;;;4959059;28;20031;-75
2023/09/16 00:17:58;;;;;;;7.95;6.07;;;17.80;99.90;;;;;;4964106;28;20481;-77
2023/09/16 00:20:28;;;;;;;7.88;6.03;;;17.80;99.90;;;;;;4959446;28;20109;-76
2023/09/16 00:22:54;;;;;;;10.48;6.45;;;17.80;99.90;;;;;;4956561;28;20035;-77
2023/09/16 00:25:19;;;;;;;10.23;6.07;;;17.80;99.90;;;;;;4961911;28;20504;-76
2023/09/16 00:27:45;;;;;;;9.32;6.15;;;17.70;99.90;;;;;;4964078;28;20035;-75
2023/09/16 00:30:11;;;;;;;8.82;6.63;;;17.70;99.90;;;;;;4956186;28;20021;-76
2023/09/16 00:32:37;;;;;;;9.23;6.15;;;17.70;99.90;;;;;;4958189;28;20031;-76
2023/09/16 00:35:04;;;;;;;8.25;5.72;;;17.70;99.90;;;;;;4963622;28;20030;-76
2023/09/16 00:37:30;;;;;;;8.20;5.65;;;17.70;99.90;;;;;;4959958;28;20058;-76
2023/09/16 00:39:55;;;;;;;10.18;6.10;;;17.70;99.90;;;;;;4955731;28;20047;-75
2023/09/16 00:42:21;;;;;;;9.50;6.68;;;17.70;99.90;;;;;;4944210;29;20494;-76
2023/09/16 00:44:47;;;;;;;10.65;6.57;;;17.70;99.90;;;;;;4963201;28;20493;-76
2023/09/16 00:47:13;;;;;;;8.25;5.95;;;17.70;99.90;;;;;;4956072;28;20393;-76
2023/09/16 00:49:40;;;;;;;8.90;5.80;;;17.70;99.90;;;;;;4947979;28;20031;-76
2023/09/16 00:52:07;;;;;;;10.25;6.70;;;17.70;99.90;;;;;;4932887;29;20019;-75
2023/09/16 00:54:33;;;;;;;8.98;6.10;;;17.60;99.90;;;;;;4959649;28;20023;-76
2023/09/16 00:57:01;;;;;;;9.88;6.50;;;17.60;99.90;;;;;;4955424;28;20027;-76
2023/09/16 00:59:28;;;;;;;8.52;5.63;;;17.60;99.90;;;;;;4958990;28;20027;-76
2023/09/16 01:01:55;;;;;;;8.93;6.45;;;17.60;99.90;;;;;;4963569;28;20023;-75
2023/09/16 01:04:22;;;;;;;10.68;6.38;;;17.60;99.90;;;;;;4956112;28;20512;-76
2023/09/16 01:06:50;;;;;;;10.25;6.97;;;17.60;99.90;;;;;;4956347;28;20027;-76
2023/09/16 01:09:17;;;;;;;9.15;6.72;;;17.60;99.90;;;;;;4947547;29;20016;-76
2023/09/16 01:11:43;;;;;;;10.52;6.32;;;17.60;99.90;;;;;;4953281;28;20145;-76
2023/09/16 01:14:13;;;;;;;11.15;7.32;;;17.50;99.90;;;;;;4962774;28;20023;-76
2023/09/16 01:16:46;;;;;;;9.60;7.00;;;17.60;99.90;;;;;;4942778;28;20023;-76
2023/09/16 01:19:20;;;;;;;12.50;6.75;;;17.50;99.90;;;;;;4955506;28;20031;-76
2023/09/16 01:21:48;;;;;;;10.38;7.00;;;17.50;99.90;;;;;;4943303;28;20027;-76
2023/09/16 01:24:23;;;;;;;9.88;6.97;;;17.50;99.90;;;;;;4955903;28;20063;-76
2023/09/16 01:26:49;;;;;;;10.70;6.93;;;17.50;99.90;;;;;;4942034;28;20022;-76
2023/09/16 01:29:20;;;;;;;10.77;7.90;;;17.50;99.90;;;;;;4956605;28;20070;-75
2023/09/16 01:31:46;;;;;;;10.20;6.70;;;17.50;99.90;;;;;;4963042;28;20021;-76
2023/09/16 01:34:41;;;;;;;9.95;6.70;;;17.50;99.90;;;;;;4959591;28;20023;-76
2023/09/16 01:37:15;;;;;;;10.57;7.10;;;17.40;99.90;;;;;;4937006;29;20035;-76
2023/09/16 01:39:46;;;;;;;13.15;7.50;;;17.40;99.90;;;;;;4962159;28;20121;-76
2023/09/16 01:42:13;;;;;;;11.35;6.68;;;17.40;99.90;;;;;;4955706;28;20500;-76
2023/09/16 01:44:38;;;;;;;9.45;6.80;;;17.40;99.90;;;;;;4955824;28;20249;-75
2023/09/16 01:47:07;;;;;;;10.10;7.25;;;17.30;99.90;;;;;;4962439;28;20509;-75
2023/09/16 01:49:32;;;;;;;10.60;7.20;;;17.30;99.90;;;;;;4959587;28;20030;-76
2023/09/16 01:51:58;;;;;;;11.73;7.55;;;17.30;99.90;;;;;;4954953;28;20073;-75
2023/09/16 01:54:24;;;;;;;11.13;7.57;;;17.30;99.90;;;;;;4959041;28;20474;-76
2023/09/16 01:56:50;;;;;;;11.02;7.85;;;17.20;99.90;;;;;;4962676;28;20030;-76
2023/09/16 01:59:15;;;;;;;10.77;7.30;;;17.20;99.90;;;;;;4956021;28;20109;-76
2023/09/16 02:01:42;;;;;;;10.05;7.50;;;17.20;99.90;;;;;;4954591;28;20133;-76
2023/09/16 02:04:08;;;;;;;10.30;6.43;;;17.20;99.90;;;;;;4965603;28;20042;-76
2023/09/16 02:06:34;;;;;;;8.45;6.63;;;17.20;99.90;;;;;;4956861;28;20031;-76
2023/09/16 02:08:59;;;;;;;8.98;6.97;;;17.10;99.90;;;;;;4962164;28;20026;-76
2023/09/16 02:11:25;;;;;;;10.75;7.45;;;17.20;99.90;;;;;;4952457;28;20486;-76
2023/09/16 02:13:51;;;;;;;11.35;7.72;;;17.20;99.90;;;;;;4959667;28;20507;-76
2023/09/16 02:16:16;;;;;;;11.13;7.68;;;17.10;99.90;;;;;;4954427;28;20158;-76
2023/09/16 02:18:42;;;;;;;9.32;7.78;;;17.10;99.90;;;;;;4958805;28;20106;-76
2023/09/16 02:21:08;;;;;;;12.00;8.18;;;17.10;99.90;;;;;;4950242;28;20161;-76
2023/09/16 02:23:34;;;;;;;12.35;8.05;;;17.10;99.90;;;;;;4960645;28;20023;-76
2023/09/16 02:26:02;;;;;;;13.90;7.97;;;17.00;99.90;;;;;;4961497;28;20023;-76
2023/09/16 02:28:29;;;;;;;10.95;7.82;;;17.10;99.90;;;;;;4954024;28;20022;-76
2023/09/16 02:30:54;;;;;;;9.95;7.80;;;17.00;99.90;;;;;;4956139;28;20394;-76
2023/09/16 02:33:20;;;;;;;11.27;7.95;;;17.00;99.90;;;;;;4962110;28;20016;-76
2023/09/16 02:35:46;;;;;;;10.25;7.70;;;17.00;99.90;;;;;;4957820;28;20034;-76
2023/09/16 02:38:12;;;;;;;12.05;8.18;;;17.00;99.90;;;;;;4954402;28;20046;-76
2023/09/16 02:40:41;;;;;;;10.88;8.10;;;17.00;99.90;;;;;;4953809;28;20502;-76
2023/09/16 02:43:10;;;;;;;10.90;8.10;;;16.90;99.90;;;;;;4962313;28;20031;-76
2023/09/16 02:45:40;;;;;;;12.80;8.02;;;17.00;99.90;;;;;;4954220;28;20026;-76
2023/09/16 02:48:05;;;;;;;11.43;8.37;;;16.90;99.90;;;;;;4955215;28;20056;-76
2023/09/16 02:50:36;;;;;;;10.55;8.13;;;16.90;99.90;;;;;;4953154;28;20047;-76
2023/09/16 02:53:02;;;;;;;12.32;8.18;;;16.90;99.90;;;;;;4956495;28;20039;-75
2023/09/16 02:55:28;;;;;;;11.23;8.23;;;16.90;99.90;;;;;;4961503;28;20479;-76
2023/09/16 02:57:54;;;;;;;9.77;7.97;;;16.80;99.90;;;;;;4958307;28;20501;-76
2023/09/16 03:00:20;;;;;;;14.55;8.68;;;16.80;99.90;;;;;;4953625;28;20086;-76
2023/09/16 03:02:49;;;;;;;12.98;8.32;;;16.80;99.90;;;;;;4959986;28;20119;-76
2023/09/16 03:05:15;;;;;;;11.68;8.80;;;16.80;99.90;;;;;;4961297;28;20468;-76
2023/09/16 03:07:41;;;;;;;12.40;9.23;;;16.80;99.90;;;;;;4954708;28;20030;-76
2023/09/16 03:10:07;;;;;;;11.15;8.98;;;16.80;99.90;;;;;;4955180;28;20027;-76
2023/09/16 03:12:33;;;;;;;12.55;8.98;;;16.80;99.90;;;;;;4952583;28;20030;-76
2023/09/16 03:14:58;;;;;;;12.23;8.70;;;16.80;99.90;;;;;;4964210;28;20394;-76
2023/09/16 03:17:24;;;;;;;11.65;9.10;;;16.80;99.90;;;;;;4964270;28;20393;-76
2023/09/16 03:19:50;;;;;;;12.45;9.38;;;16.70;99.90;;;;;;4957342;28;20050;-76
2023/09/16 03:22:16;;;;;;;12.60;8.93;;;16.70;99.90;;;;;;4966617;28;20126;-76
2023/09/16 03:24:43;;;;;;;11.45;8.90;;;16.70;99.90;;;;;;4966553;28;20509;-76
2023/09/16 03:27:08;;;;;;;11.18;8.73;;;16.70;99.90;;;;;;4960196;28;20042;-76
2023/09/16 03:29:34;;;;;;;11.07;8.68;;;16.70;99.90;;;;;;4956778;28;20497;-76
2023/09/16 03:32:00;;;;;;;11.45;9.02;;;16.70;99.90;;;;;;4964723;28;20027;-76
2023/09/16 03:34:25;;;;;;;13.13;9.70;;;16.70;99.90;;;;;;4950992;28;20483;-76
2023/09/16 03:36:51;;;;;;;12.25;8.75;;;16.70;99.90;;;;;;4965075;28;20039;-76
2023/09/16 03:39:17;;;;;;;13.90;9.23;;;16.70;99.90;;;;;;4961309;28;20042;-76
2023/09/16 03:41:43;;;;;;;14.75;9.73;;;16.60;99.90;;;;;;4954454;28;20039;-76
2023/09/16 03:44:09;;;;;;;13.93;9.07;;;16.60;99.90;;;;;;4959378;28;20038;-76
2023/09/16 03:46:35;;;;;;;11.38;8.82;;;16.60;99.90;;;;;;4956876;28;20027;-76
2023/09/16 03:49:01;;;;;;;13.27;9.63;;;16.60;99.90;;;;;;4963868;28;20019;-75
2023/09/16 03:51:27;;;;;;;12.98;9.65;;;16.60;99.90;;;;;;4963470;28;20023;-76
2023/09/16 03:53:53;;;;;;;16.02;9.80;;;16.60;99.90;;;;;;4956737;28;20027;-76
2023/09/16 03:56:19;;;;;;;13.10;9.30;;;16.60;99.90;;;;;;4959701;28;20556;-75
2023/09/16 03:58:48;;;;;;;14.93;10.10;;;16.50;99.90;;;;;;4964423;28;20030;-76
2023/09/16 04:01:14;;;;;;;13.57;10.13;;;16.50;99.90;;;;;;4960170;28;20065;-75
2023/09/16 04:03:40;;;;;;;12.38;9.68;;;16.50;99.90;;;;;;4956479;28;20023;-76
2023/09/16 04:06:06;;;;;;;12.35;9.70;;;16.50;99.90;;;;;;4962876;28;20924;-76
2023/09/16 04:08:32;;;;;;;11.32;9.90;;;16.50;99.90;;;;;;4951199;29;20478;-76
2023/09/16 04:10:58;;;;;;;14.10;10.20;;;16.40;99.90;;;;;;4965983;28;20359;-76
2023/09/16 04:13:24;;;;;;;16.70;10.93;;;16.40;99.90;;;;;;4962655;28;20081;-76
2023/09/16 04:15:50;;;;;;;12.38;10.23;;;16.40;99.90;;;;;;4950210;28;20035;-76
2023/09/16 04:18:16;;;;;;;14.45;10.60;;;16.40;99.90;;;;;;4943794;29;20083;-76
2023/09/16 04:20:43;;;;;;;13.65;9.23;;;16.30;99.90;;;;;;4953976;28;20065;-76
2023/09/16 04:23:09;;;;;;;15.07;10.13;;;16.30;99.90;;;;;;4956258;28;20015;-76
2023/09/16 04:25:35;;;;;;;12.48;10.57;;;16.30;99.90;;;;;;4959397;28;20374;-76
2023/09/16 04:28:02;;;;;;;11.88;9.32;;;16.30;99.90;;;;;;4964043;28;20752;-76
2023/09/16 04:30:28;;;;;;;13.40;10.63;;;16.30;99.90;;;;;;4940673;28;20475;-76
2023/09/16 04:32:54;;;;;;;14.52;11.18;;;16.30;99.90;;;;;;4956374;28;20089;-76
2023/09/16 04:35:20;;;;;;;14.73;11.32;;;16.30;99.90;;;;;;4963503;28;20027;-76
2023/09/16 04:37:46;;;;;;;14.60;11.80;;;16.40;99.90;;;;;;4962369;28;20485;-75
2023/09/16 04:40:12;;;;;;;11.45;9.00;;;16.30;99.90;;;;;;4951548;28;20058;-76
2023/09/16 04:42:38;;;;;;;15.30;11.38;;;16.30;99.90;;;;;;4950055;29;20873;-76
2023/09/16 04:45:05;;;;;;;12.75;10.50;;;16.30;99.90;;;;;;4963251;28;20481;-76
2023/09/16 04:47:31;;;;;;;14.98;11.63;;;16.30;99.90;;;;;;4958464;28;20015;-76
2023/09/16 04:49:57;;;;;;;17.20;11.68;;;16.30;99.90;;;;;;4955737;28;20030;-75
2023/09/16 04:52:25;;;;;;;13.55;11.30;;;16.30;99.90;;;;;;4963382;28;20016;-76
2023/09/16 04:54:53;;;;;;;14.80;11.52;;;16.30;99.90;;;;;;4962104;28;20055;-76
2023/09/16 04:57:22;;;;;;;13.45;11.02;;;16.30;99.90;;;;;;4955481;28;20019;-76
2023/09/16 04:59:48;;;;;;;13.05;10.82;;;16.30;99.90;;;;;;4957904;28;20414;-76
2023/09/16 05:02:14;;;;;;;13.88;11.25;;;16.20;99.90;;;;;;4962012;28;20524;-76
2023/09/16 05:04:39;;;;;;;12.82;11.30;;;16.20;99.90;;;;;;4958737;28;20133;-76
2023/09/16 05:07:06;;;;;;;12.90;10.73;;;16.20;99.90;;;;;;4955518;28;20513;-76
2023/09/16 05:09:31;;;;;;;13.23;11.35;;;16.20;99.90;;;;;;4961261;28;20146;-76
2023/09/16 05:11:57;;;;;;;13.77;12.00;;;16.20;99.90;;;;;;4953424;28;20102;-76
2023/09/16 05:14:24;;;;;;;14.20;11.43;;;16.20;99.90;;;;;;4963109;28;20110;-76
2023/09/16 05:16:50;;;;;;;14.15;11.35;;;16.20;99.90;;;;;;4957414;28;20310;-76
2023/09/16 05:19:16;;;;;;;15.95;12.48;;;16.10;99.90;;;;;;4955371;28;20557;-76
2023/09/16 05:21:41;;;;;;;15.05;12.20;;;16.10;99.90;;;;;;4962904;28;20075;-76
2023/09/16 05:24:07;;;;;;;13.13;10.93;;;16.10;99.90;;;;;;4960909;28;20360;-76
2023/09/16 05:26:33;;;;;;;15.55;12.85;;;16.10;99.90;;;;;;4954615;28;20023;-76
2023/09/16 05:28:59;;;;;;;14.77;12.23;;;16.10;99.90;;;;;;4959220;28;20058;-75
2023/09/16 05:31:24;;;;;;;15.68;12.73;;;16.10;99.90;;;;;;4962650;28;20050;-77
2023/09/16 05:33:50;;;;;;;14.27;11.73;;;16.10;99.90;;;;;;4957371;28;20077;-75
2023/09/16 05:36:16;;;;;;;14.82;11.52;;;16.10;99.90;;;;;;4937477;29;20027;-76
2023/09/16 05:38:42;;;;;;;15.90;12.27;;;16.10;99.90;;;;;;4942351;29;20031;-75
2023/09/16 05:41:08;;;;;;;14.93;12.63;;;16.10;99.90;;;;;;4935457;28;20061;-75
2023/09/16 05:43:34;;;;;;;17.02;12.48;;;16.10;99.90;;;;;;4954935;28;20117;-75
2023/09/16 05:46:01;;;;;;;16.60;12.60;;;16.10;99.90;;;;;;4941098;29;20043;-75
2023/09/16 05:48:27;;;;;;;18.92;13.20;;;16.10;99.90;;;;;;4962585;28;20022;-75
2023/09/16 05:51:00;;;;;;;15.15;12.25;;;16.10;99.90;;;;;;4939326;28;20033;-75
2023/09/16 05:53:27;;;;;;;15.48;12.20;;;16.10;99.90;;;;;;4954754;28;20065;-76
2023/09/16 05:55:53;;;;;;;16.42;12.07;;;16.10;99.90;;;;;;4960900;28;20035;-76
2023/09/16 05:58:19;;;;;;;15.13;12.18;;;16.10;99.90;;;;;;4962065;28;20027;-76
2023/09/16 06:00:55;;;;;;;14.30;11.52;;;16.10;99.90;;;;;;4954279;28;20088;-75
2023/09/16 06:03:21;;;;;;;14.70;12.48;;;16.10;99.90;;;;;;4942081;28;20034;-76
2023/09/16 06:05:46;;;;;;;14.93;12.18;;;16.10;99.90;;;;;;4953533;28;20037;-76
2023/09/16 06:08:13;;;;;;;16.95;12.57;;;16.10;99.90;;;;;;4957716;28;20397;-76
2023/09/16 06:10:39;;;;;;;16.00;12.48;;;16.20;99.90;;;;;;4950769;28;20054;-76
2023/09/16 06:13:04;;;;;;;16.38;12.40;;;16.20;99.90;;;;;;4954786;28;20073;-74
2023/09/16 06:15:30;;;;;;;16.00;12.73;;;16.20;99.90;;;;;;4957248;28;20571;-73
2023/09/16 06:17:56;;;;;;;15.27;12.60;;;16.20;99.90;;;;;;4962520;28;20034;-74
2023/09/16 06:20:21;;;;;;;14.75;11.95;;;16.20;99.90;;;;;;4948523;29;20402;-73
2023/09/16 06:22:47;;;;;;;13.25;11.73;;;16.20;99.90;;;;;;4951916;28;20031;-74
2023/09/16 06:25:14;;;;;;;14.88;11.82;;;16.30;99.90;;;;;;4958387;28;20069;-74
2023/09/16 06:27:39;;;;;;;14.13;11.68;;;16.30;99.90;;;;;;4938089;29;20031;-74
2023/09/16 06:30:05;;;;;;;14.43;12.13;;;16.30;99.90;;;;;;4944037;29;20078;-74
2023/09/16 06:32:31;;;;;;;16.67;12.88;;;16.40;99.90;;;;;;4949884;28;20031;-74
2023/09/16 06:34:57;;;;;;;13.65;11.73;;;16.40;99.90;;;;;;4951629;28;20014;-73
2023/09/16 06:37:22;;;;;;;14.50;11.50;;;16.40;99.90;;;;;;4966754;28;20106;-74
2023/09/16 06:39:48;;;;;;;13.63;11.90;;;16.40;99.90;;;;;;4962101;28;20076;-76
2023/09/16 06:42:14;;;;;;;14.10;12.20;;;16.50;99.90;;;;;;4955335;28;20069;-76
2023/09/16 06:44:40;;;;;;;13.50;11.77;;;16.50;99.90;;;;;;4958658;28;20043;-76
2023/09/16 06:47:05;;;;;;;16.05;12.77;;;16.50;99.90;;;;;;4956548;28;20039;-77
2023/09/16 06:49:31;;;;;;;15.57;12.15;;;16.50;99.90;;;;;;4947157;29;20390;-76
2023/09/16 06:51:56;;;;;;;16.58;12.45;;;16.60;99.90;;;;;;4954234;28;20023;-76
2023/09/16 06:54:22;;;;;;;14.35;11.65;;;16.60;99.90;;;;;;4958379;28;20062;-73
2023/09/16 06:56:48;;;;;;;14.23;11.40;;;16.70;99.90;;;;;;4961006;28;20023;-75
2023/09/16 06:59:14;;;;;;;16.00;12.77;;;16.70;99.90;;;;;;4964838;28;20049;-74
2023/09/16 07:01:39;;;;;;;11.95;10.15;;;16.80;99.90;;;;;;4957446;28;20056;-74
2023/09/16 07:04:05;;;;;;;12.23;10.95;;;16.80;99.90;;;;;;4967850;28;20031;-75
2023/09/16 07:06:31;;;;;;;13.55;10.88;;;16.90;99.90;;;;;;4968963;28;20023;-74
2023/09/16 07:08:56;;;;;;;14.35;11.57;;;16.90;99.90;;;;;;4964942;28;20038;-75
2023/09/16 07:11:22;;;;;;;13.57;11.30;;;17.00;99.90;;;;;;4961811;28;20023;-75
2023/09/16 07:13:48;;;;;;;12.70;10.82;;;17.10;99.90;;;;;;4947404;28;20452;-75
2023/09/16 07:16:13;;;;;;;13.32;11.27;;;17.10;99.90;;;;;;4956639;28;20027;-74
2023/09/16 07:18:39;;;;;;;11.65;10.00;;;17.20;99.90;;;;;;4961235;28;20023;-75
2023/09/16 07:21:06;;;;;;;13.55;10.27;;;17.20;99.90;;;;;;4965049;28;20034;-75
2023/09/16 07:23:32;;;;;;;12.77;10.70;;;17.30;99.90;;;;;;4947605;28;20053;-76
2023/09/16 07:25:59;;;;;;;14.63;10.40;;;17.30;99.90;;;;;;4951031;28;20639;-75
2023/09/16 07:28:26;;;;;;;14.02;9.73;;;17.40;99.90;;;;;;4941147;28;20067;-75
2023/09/16 07:30:52;;;;;;;14.82;9.93;;;17.50;99.90;;;;;;4956146;28;20038;-76
2023/09/16 07:33:18;;;;;;;11.50;9.52;;;17.50;99.90;;;;;;4952961;28;20485;-75
2023/09/16 07:35:44;;;;;;;11.95;9.95;;;17.60;99.90;;;;;;4950520;28;20086;-75
2023/09/16 07:38:10;;;;;;;11.02;9.63;;;17.70;99.90;;;;;;4955808;28;20094;-76
2023/09/16 07:40:37;;;;;;;10.55;9.05;;;17.70;99.90;;;;;;4954959;28;20158;-75
2023/09/16 07:43:07;;;;;;;11.10;9.32;;;17.80;99.90;;;;;;4952868;28;20065;-75
2023/09/16 07:45:32;;;;;;;10.40;9.00;;;17.90;99.90;;;;;;4953696;28;20390;-75
2023/09/16 07:47:58;;;;;;;12.07;9.75;;;17.90;99.90;;;;;;4938396;28;20038;-76
2023/09/16 07:50:24;;;;;;;11.07;9.55;;;18.00;99.90;;;;;;4948583;28;20122;-76
2023/09/16 07:52:49;;;;;;;12.52;10.50;;;18.10;99.90;;;;;;4960269;28;20050;-75
2023/09/16 07:55:15;;;;;;;11.77;8.55;;;18.10;99.90;;;;;;4954682;28;20054;-75
2023/09/16 07:57:41;;;;;;;12.23;9.88;;;18.20;99.90;;;;;;4960701;28;20027;-75
2023/09/16 08:00:07;;;;;;;15.30;9.02;;;18.30;99.90;;;;;;4941323;28;20523;-76
2023/09/16 08:02:33;;;;;;;11.43;9.27;;;18.30;99.90;;;;;;4963400;28;20031;-75
2023/09/16 08:04:59;;;;;;;11.82;9.13;;;18.40;99.90;;;;;;4950489;28;20138;-75
2023/09/16 08:07:25;;;;;;;10.05;8.52;;;18.40;99.90;;;;;;4954546;28;20110;-75
2023/09/16 08:09:51;;;;;;;11.82;10.02;;;18.50;99.90;;;;;;4963376;28;20446;-75
2023/09/16 08:12:17;;;;;;;10.93;8.25;;;18.50;99.90;;;;;;4957039;28;20023;-75
2023/09/16 08:14:43;;;;;;;10.80;8.30;;;18.60;99.90;;;;;;4962941;28;20011;-75
2023/09/16 08:17:09;;;;;;;13.02;9.70;;;18.60;99.90;;;;;;4959071;28;20587;-75
2023/09/16 08:19:35;;;;;;;11.90;9.77;;;18.70;99.90;;;;;;4963340;28;20058;-75
2023/09/16 08:22:00;;;;;;;10.43;8.38;;;18.80;99.90;;;;;;4940780;28;20367;-75
2023/09/16 08:24:26;;;;;;;11.07;9.43;;;18.90;99.90;;;;;;4948972;28;20059;-75
2023/09/16 08:26:52;;;;;;;11.73;8.60;;;18.90;99.90;;;;;;4962453;28;20031;-75
2023/09/16 08:29:18;;;;;;;10.00;8.27;;;19.00;99.90;;;;;;4958695;28;20520;-75
2023/09/16 08:31:43;;;;;;;9.77;8.48;;;19.10;99.90;;;;;;4955821;28;20580;-75
2023/09/16 08:34:09;;;;;;;11.85;8.82;;;19.10;99.90;;;;;;4959056;28;20028;-75
2023/09/16 08:36:35;;;;;;;12.45;8.32;;;19.20;99.90;;;;;;4962920;28;20038;-75
2023/09/16 08:39:00;;;;;;;10.80;8.57;;;19.30;99.90;;;;;;4957268;28;20038;-74
2023/09/16 08:41:35;;;;;;;10.10;7.93;;;19.40;99.90;;;;;;4945948;29;20111;-75
2023/09/16 08:44:05;;;;;;;9.07;7.10;;;19.40;99.90;;;;;;4954549;28;20509;-74
2023/09/16 08:46:34;;;;;;;10.32;7.72;;;19.50;99.90;;;;;;4953078;28;20027;-74
2023/09/16 08:49:04;;;;;;;10.18;7.22;;;19.60;99.90;;;;;;4959721;28;20043;-75
2023/09/16 08:51:34;;;;;;;8.63;6.40;;;19.70;99.90;;;;;;4959513;28;20019;-75
2023/09/16 08:54:03;;;;;;;9.13;7.20;;;19.70;99.90;;;;;;4952781;28;20045;-75
2023/09/16 08:56:29;;;;;;;9.05;7.15;;;19.80;99.90;;;;;;4955510;28;20342;-75
2023/09/16 08:58:56;;;;;;;9.48;7.28;;;19.80;99.90;;;;;;4962342;28;20031;-75
2023/09/16 09:01:21;;;;;;;11.68;7.70;;;19.90;99.90;;;;;;4942313;28;20033;-75
2023/09/16 09:03:47;;;;;;;11.57;7.60;;;20.00;99.90;;;;;;4965554;28;20039;-75
2023/09/16 09:06:14;;;;;;;9.55;7.22;;;20.10;99.90;;;;;;4940477;28;20042;-75
2023/09/16 09:08:39;;;;;;;9.32;7.10;;;20.10;99.90;;;;;;4938187;28;20023;-75
2023/09/16 09:11:10;;;;;;;10.50;7.38;;;20.20;99.90;;;;;;4965482;28;20843;-75
2023/09/16 09:13:36;;;;;;;9.80;7.32;;;20.30;99.90;;;;;;4960269;28;20045;-75
2023/09/16 09:16:03;;;;;;;9.48;6.97;;;20.30;99.90;;;;;;4962969;28;20027;-75
2023/09/16 09:18:30;;;;;;;8.70;6.47;;;20.40;99.90;;;;;;4956895;28;20030;-74
2023/09/16 09:20:56;;;;;;;9.90;6.95;;;20.50;99.90;;;;;;4955532;28;20417;-74
2023/09/16 09:23:22;;;;;;;14.63;9.63;;;20.60;99.90;;;;;;4963273;28;20102;-75
2023/09/16 09:25:47;;;;;;;12.63;9.48;;;20.70;99.90;;;;;;4960358;28;20047;-75
2023/09/16 09:28:13;;;;;;;13.45;8.15;;;20.70;99.90;;;;;;4955098;28;20612;-75
2023/09/16 09:30:41;;;;;;;10.57;8.18;;;20.80;99.90;;;;;;4959054;28;20050;-75
2023/09/16 09:33:14;;;;;;;10.27;7.25;;;20.90;99.90;;;;;;4951439;28;20115;-74
2023/09/16 09:35:40;;;;;;;9.23;7.40;;;20.90;99.90;;;;;;4959805;28;20541;-75
2023/09/16 09:38:06;;;;;;;11.50;7.40;;;21.00;99.90;;;;;;4962914;28;20027;-75
2023/09/16 09:40:31;;;;;;;11.15;8.07;;;21.10;99.90;;;;;;4955465;28;20051;-75
2023/09/16 09:42:59;;;;;;;11.23;7.45;;;21.20;99.90;;;;;;4956155;28;20035;-75
2023/09/16 09:45:28;;;;;;;9.10;6.93;;;21.30;99.90;;;;;;4962314;28;20528;-75
2023/09/16 09:47:53;;;;;;;10.38;7.75;;;21.30;99.90;;;;;;4960646;28;20035;-75
2023/09/16 09:50:21;;;;;;;9.40;7.22;;;21.40;99.90;;;;;;4954497;28;20388;-75
2023/09/16 09:52:54;;;;;;;8.30;6.85;;;21.50;99.90;;;;;;4959213;28;20034;-74
2023/09/16 09:55:27;;;;;;;9.55;6.63;;;21.60;99.90;;;;;;4962479;28;20150;-75
2023/09/16 09:57:53;;;;;;;11.10;6.72;;;21.60;99.90;;;;;;4958808;28;20176;-75
2023/09/16 10:00:21;;;;;;;7.35;6.28;;;21.70;99.90;;;;;;4953019;28;20115;-74
2023/09/16 10:02:48;;;;;;;8.85;7.03;;;21.80;99.90;;;;;;4956851;28;20081;-75
2023/09/16 10:05:15;;;;;;;8.40;5.93;;;21.90;99.90;;;;;;4965988;28;20049;-75
2023/09/16 10:07:44;;;;;;;8.43;6.95;;;22.00;99.90;;;;;;4955294;28;20021;-74
2023/09/16 10:10:25;;;;;;;8.13;6.50;;;22.00;99.90;;;;;;4955463;28;20498;-74
2023/09/16 10:12:51;;;;;;;;;;;22.10;99.90;;;;;;4958941;28;20023;-75
2023/09/16 10:15:22;;;;;;;9.25;5.93;;;22.20;99.90;;;;;;4956154;28;19953;-75
2023/09/16 10:17:49;;;;;;;12.73;5.93;;;22.30;99.90;;;;;;4954263;28;20034;-75
2023/09/16 10:20:16;;;;;;;7.68;5.28;;;22.40;99.90;;;;;;4960554;28;20028;-74
2023/09/16 10:22:43;;;;;;;11.95;5.97;;;22.50;99.90;;;;;;4944358;28;20033;-75
2023/09/16 10:25:11;;;;;;;7.32;5.13;;;22.60;99.90;;;;;;4954552;28;20042;-75
2023/09/16 10:27:58;;;;;;;9.65;5.20;;;22.60;99.90;;;;;;4956351;28;20544;-75
2023/09/16 10:30:25;;;;;;;7.68;5.50;;;22.70;99.90;;;;;;4943542;28;20103;-75
2023/09/16 10:32:52;;;;;;;7.05;4.70;;;22.80;99.90;;;;;;4953532;28;20058;-75
2023/09/16 10:35:21;;;;;;;9.88;4.57;;;22.90;99.90;;;;;;4962124;28;20067;-75
2023/09/16 10:37:50;;;;;;;7.15;4.80;;;22.90;99.90;;;;;;4960485;28;20034;-75
2023/09/16 10:40:28;;;;;;;7.85;4.80;;;23.00;99.90;;;;;;4954193;28;20119;-75
2023/09/16 10:42:56;;;;;;;8.00;4.03;;;23.10;99.90;;;;;;4956035;28;20062;-75
2023/09/16 10:45:22;;;;;;;6.65;3.58;;;23.20;99.90;;;;;;4961814;28;20031;-75
2023/09/16 10:47:52;;;;;;;7.35;3.40;;;23.30;99.90;;;;;;4958926;28;20023;-75
2023/09/16 10:50:20;;;;;;;8.57;3.60;;;23.30;99.90;;;;;;4954201;28;20022;-75
2023/09/16 10:52:55;;;;;;;5.05;3.50;;;23.40;99.90;;;;;;4958433;28;20019;-75
2023/09/16 10:55:34;;;;;;;4.78;3.35;;;23.50;99.90;;;;;;4962244;28;20036;-75
2023/09/16 10:58:30;;;;;;;3.92;2.70;;;23.50;99.90;;;;;;4959193;28;20027;-75
2023/09/16 11:00:58;;;;;;;5.07;3.15;;;23.60;99.90;;;;;;4940415;28;20057;-75
2023/09/16 11:03:30;;;;;;;5.15;2.70;;;23.70;99.90;;;;;;4954975;28;20118;-75
2023/09/16 11:06:01;;;;;;;3.88;2.80;;;23.80;99.90;;;;;;4940366;28;20023;-75
2023/09/16 11:08:27;;;;;;;6.40;3.13;;;23.90;99.90;;;;;;4955280;28;20103;-75
2023/09/16 11:10:55;;;;;;;3.55;2.55;;;23.90;99.90;;;;;;4962492;28;20118;-75
2023/09/16 11:13:24;;;;;;;4.88;3.10;;;24.00;99.90;;;;;;4960737;28;20090;-75
2023/09/16 11:15:50;;;;;;;4.93;2.72;;;24.00;99.90;;;;;;4961126;28;20023;-75
2023/09/16 11:18:18;;;;;;;3.22;2.63;;;24.10;99.90;;;;;;4954043;28;20049;-76
2023/09/16 11:20:45;;;;;;;3.80;2.75;;;24.10;99.90;;;;;;4955547;28;20031;-75
2023/09/16 11:23:12;;;;;;;4.72;2.97;;;24.20;99.90;;;;;;4961758;28;20552;-75
2023/09/16 11:25:40;;;;;;;3.60;2.33;;;24.30;99.90;;;;;;4957591;28;20031;-75
2023/09/16 11:28:11;;;;;;;3.58;2.55;;;24.30;99.90;;;;;;4954228;28;20061;-75
2023/09/16 11:30:38;;;;;;;6.70;2.83;;;24.40;99.90;;;;;;4958341;28;20051;-75
2023/09/16 11:33:10;;;;;;;6.75;2.80;;;24.50;99.90;;;;;;4944349;28;20023;-75
2023/09/16 11:35:38;;;;;;;5.78;2.83;;;24.60;99.90;;;;;;4958670;28;20027;-75
2023/09/16 11:38:04;;;;;;;3.47;2.58;;;24.60;99.90;;;;;;4957107;28;20401;-75
2023/09/16 11:40:33;;;;;;;4.10;2.95;;;24.60;99.90;;;;;;4963765;28;20047;-75
2023/09/16 11:42:59;;;;;;;5.00;3.40;;;24.80;99.90;;;;;;4964144;28;20022;-75
2023/09/16 11:45:27;;;;;;;5.45;3.70;;;24.80;99.90;;;;;;4956779;28;20525;-75
2023/09/16 11:47:53;;;;;;;5.93;3.83;;;24.90;99.90;;;;;;4959532;28;20091;-75
2023/09/16 11:50:26;;;;;;;5.10;3.00;;;25.00;99.90;;;;;;4954254;28;20015;-74
2023/09/16 11:52:52;;;;;;;4.85;3.70;;;25.00;99.90;;;;;;4943282;29;20019;-75
2023/09/16 11:55:19;;;;;;;6.10;3.50;;;25.10;99.90;;;;;;4964514;28;20023;-75
2023/09/16 11:57:48;;;;;;;6.07;4.07;;;25.10;99.90;;;;;;4959249;28;20564;-75
2023/09/16 12:00:16;;;;;;;5.13;3.80;;;25.20;99.90;;;;;;4939629;28;20054;-75
2023/09/16 12:02:42;;;;;;;4.97;3.92;;;25.30;99.90;;;;;;4949436;29;20708;-75
2023/09/16 12:05:10;;;;;;;5.57;3.85;;;25.30;99.90;;;;;;4963910;28;20377;-75
2023/09/16 12:07:37;;;;;;;5.40;3.88;;;25.30;99.90;;;;;;4938734;28;20027;-75
2023/09/16 12:10:03;;;;;;;5.60;3.38;;;25.40;99.90;;;;;;4963717;28;20027;-75
2023/09/16 12:12:29;;;;;;;7.20;3.67;;;25.50;99.90;;;;;;4947981;28;20090;-75
2023/09/16 12:15:02;;;;;;;6.43;3.40;;;25.50;99.90;;;;;;4936555;28;20031;-75
2023/09/16 12:17:28;;;;;;;4.95;3.60;;;25.60;99.90;;;;;;4952514;28;20027;-75
2023/09/16 12:19:55;;;;;;;3.40;2.97;;;25.60;99.90;;;;;;4953315;28;20035;-75
2023/09/16 12:22:21;;;;;;;5.65;3.67;;;25.70;99.90;;;;;;4933089;29;20510;-75
2023/09/16 12:24:51;;;;;;;5.10;3.38;;;25.70;99.90;;;;;;4951824;28;20047;-75
2023/09/16 12:27:20;;;;;;;6.43;4.17;;;25.80;99.90;;;;;;4958847;28;20109;-75
2023/09/16 12:29:45;;;;;;;6.60;3.80;;;25.80;99.90;;;;;;4935425;28;20267;-76
2023/09/16 12:32:14;;;;;;;6.75;4.32;;;25.80;99.90;;;;;;4968683;28;20027;-75
2023/09/16 12:34:40;;;;;;;6.53;4.03;;;25.90;99.90;;;;;;4948862;28;20047;-75
2023/09/16 12:37:07;;;;;;;4.13;3.55;;;25.90;99.90;;;;;;4956538;28;20101;-75